sensor_id;sensor_type;location;lat;lon;timestamp;pressure;altitude;pressure_sealevel;temperature;humidity
57074;BME280;69035;54.392;18.574;2023-04-06T00:00:20;102208.66;;;0.02;66.56
57074;BME280;69035;54.392;18.574;2023-04-06T00:03:11;102210.44;;;0.03;66.27
57074;BME280;69035;54.392;18.574;2023-04-06T00:05:40;102202.84;;;0.06;66.82
57074;BME280;69035;54.392;18.574;2023-04-06T00:08:09;102209.69;;;0.06;67.13
57074;BME280;69035;54.392;18.574;2023-04-06T00:10:38;102210.53;;;0.05;67.24
57074;BME280;69035;54.392;18.574;2023-04-06T00:13:06;102213.38;;;0.09;66.58
57074;BME280;69035;54.392;18.574;2023-04-06T00:15:35;102203.75;;;0.07;67.55
57074;BME280;69035;54.392;18.574;2023-04-06T00:18:04;102207.13;;;0.06;66.93
57074;BME280;69035;54.392;18.574;2023-04-06T00:20:35;102201.16;;;0.07;66.71
57074;BME280;69035;54.392;18.574;2023-04-06T00:23:04;102199.56;;;0.09;66.61
57074;BME280;69035;54.392;18.574;2023-04-06T00:25:33;102197.84;;;0.09;66.98
57074;BME280;69035;54.392;18.574;2023-04-06T00:28:01;102189.59;;;0.00;67.01
57074;BME280;69035;54.392;18.574;2023-04-06T00:30:31;102198.47;;;0.05;67.91
57074;BME280;69035;54.392;18.574;2023-04-06T00:32:59;102200.28;;;0.06;66.97
57074;BME280;69035;54.392;18.574;2023-04-06T00:35:28;102198.56;;;0.07;67.37
57074;BME280;69035;54.392;18.574;2023-04-06T00:37:58;102203.66;;;0.05;68.05
57074;BME280;69035;54.392;18.574;2023-04-06T00:40:27;102198.31;;;0.02;67.44
57074;BME280;69035;54.392;18.574;2023-04-06T00:42:58;102204.38;;;0.03;68.13
57074;BME280;69035;54.392;18.574;2023-04-06T00:45:27;102198.56;;;0.07;67.34
57074;BME280;69035;54.392;18.574;2023-04-06T00:47:56;102195.56;;;-0.01;67.76
57074;BME280;69035;54.392;18.574;2023-04-06T00:50:25;102185.06;;;-0.04;67.70
57074;BME280;69035;54.392;18.574;2023-04-06T00:52:54;102190.16;;;-0.06;67.61
57074;BME280;69035;54.392;18.574;2023-04-06T00:55:29;102186.56;;;-0.08;67.43
57074;BME280;69035;54.392;18.574;2023-04-06T00:57:59;102186.72;;;-0.05;67.29
57074;BME280;69035;54.392;18.574;2023-04-06T01:00:33;102183.97;;;-0.08;67.88
57074;BME280;69035;54.392;18.574;2023-04-06T01:03:02;102189.00;;;-0.11;67.79
57074;BME280;69035;54.392;18.574;2023-04-06T01:05:40;102190.53;;;-0.14;67.90
57074;BME280;69035;54.392;18.574;2023-04-06T01:08:22;102179.28;;;-0.15;68.04
57074;BME280;69035;54.392;18.574;2023-04-06T01:11:00;102187.13;;;-0.13;67.45
57074;BME280;69035;54.392;18.574;2023-04-06T01:13:29;102180.28;;;-0.13;67.98
57074;BME280;69035;54.392;18.574;2023-04-06T01:16:02;102187.13;;;-0.13;68.01
57074;BME280;69035;54.392;18.574;2023-04-06T01:18:42;102178.56;;;-0.12;68.02
57074;BME280;69035;54.392;18.574;2023-04-06T01:21:21;102191.50;;;-0.12;67.91
57074;BME280;69035;54.392;18.574;2023-04-06T01:24:07;102181.06;;;-0.14;67.41
57074;BME280;69035;54.392;18.574;2023-04-06T01:27:15;102182.69;;;-0.16;67.94
57074;BME280;69035;54.392;18.574;2023-04-06T01:30:15;102180.00;;;-0.18;67.20
57074;BME280;69035;54.392;18.574;2023-04-06T01:32:58;102176.63;;;-0.16;67.27
57074;BME280;69035;54.392;18.574;2023-04-06T01:35:59;102176.53;;;-0.18;67.37
57074;BME280;69035;54.392;18.574;2023-04-06T01:38:29;102175.66;;;-0.19;67.89
57074;BME280;69035;54.392;18.574;2023-04-06T01:41:00;102174.56;;;-0.22;67.78
57074;BME280;69035;54.392;18.574;2023-04-06T01:43:34;102172.63;;;-0.26;67.54
57074;BME280;69035;54.392;18.574;2023-04-06T01:46:08;102175.03;;;-0.29;67.11
57074;BME280;69035;54.392;18.574;2023-04-06T01:48:41;102175.78;;;-0.32;67.97
57074;BME280;69035;54.392;18.574;2023-04-06T01:51:19;102173.72;;;-0.38;67.55
57074;BME280;69035;54.392;18.574;2023-04-06T01:53:55;102173.66;;;-0.39;67.29
57074;BME280;69035;54.392;18.574;2023-04-06T01:56:33;102170.34;;;-0.51;67.87
57074;BME280;69035;54.392;18.574;2023-04-06T01:59:23;102173.00;;;-0.50;68.08
57074;BME280;69035;54.392;18.574;2023-04-06T02:01:52;102179.72;;;-0.54;68.18
57074;BME280;69035;54.392;18.574;2023-04-06T02:04:23;102177.84;;;-0.56;67.73
57074;BME280;69035;54.392;18.574;2023-04-06T02:07:00;102176.88;;;-0.58;67.74
57074;BME280;69035;54.392;18.574;2023-04-06T02:09:29;102179.34;;;-0.60;68.09
57074;BME280;69035;54.392;18.574;2023-04-06T02:12:00;102179.81;;;-0.67;67.85
57074;BME280;69035;54.392;18.574;2023-04-06T02:14:33;102173.66;;;-0.69;67.28
57074;BME280;69035;54.392;18.574;2023-04-06T02:17:02;102183.09;;;-0.69;67.85
57074;BME280;69035;54.392;18.574;2023-04-06T02:19:31;102179.69;;;-0.68;67.36
57074;BME280;69035;54.392;18.574;2023-04-06T02:21:59;102177.94;;;-0.69;66.80
57074;BME280;69035;54.392;18.574;2023-04-06T02:24:28;102179.63;;;-0.70;67.48
57074;BME280;69035;54.392;18.574;2023-04-06T02:26:57;102182.03;;;-0.73;67.63
57074;BME280;69035;54.392;18.574;2023-04-06T02:29:28;102181.84;;;-0.76;67.64
57074;BME280;69035;54.392;18.574;2023-04-06T02:31:57;102178.22;;;-0.80;67.54
57074;BME280;69035;54.392;18.574;2023-04-06T02:34:26;102175.16;;;-0.88;68.09
57074;BME280;69035;54.392;18.574;2023-04-06T02:36:55;102188.06;;;-0.88;68.33
57074;BME280;69035;54.392;18.574;2023-04-06T02:39:24;102181.84;;;-0.91;68.31
57074;BME280;69035;54.392;18.574;2023-04-06T02:41:53;102185.13;;;-0.94;68.53
57074;BME280;69035;54.392;18.574;2023-04-06T02:44:24;102193.56;;;-0.96;67.99
57074;BME280;69035;54.392;18.574;2023-04-06T02:46:54;102189.06;;;-1.00;68.14
57074;BME280;69035;54.392;18.574;2023-04-06T02:49:24;102188.16;;;-1.01;67.78
57074;BME280;69035;54.392;18.574;2023-04-06T02:51:56;102190.81;;;-0.99;67.84
57074;BME280;69035;54.392;18.574;2023-04-06T02:54:29;102185.75;;;-0.98;68.10
57074;BME280;69035;54.392;18.574;2023-04-06T02:56:58;102185.66;;;-0.99;68.24
57074;BME280;69035;54.392;18.574;2023-04-06T02:59:36;102191.63;;;-1.00;68.97
57074;BME280;69035;54.392;18.574;2023-04-06T03:02:16;102185.38;;;-1.04;68.25
57074;BME280;69035;54.392;18.574;2023-04-06T03:04:48;102188.97;;;-1.02;68.73
57074;BME280;69035;54.392;18.574;2023-04-06T03:07:28;102184.88;;;-0.98;68.64
57074;BME280;69035;54.392;18.574;2023-04-06T03:09:57;102184.06;;;-0.97;68.46
57074;BME280;69035;54.392;18.574;2023-04-06T03:12:25;102188.16;;;-1.01;68.42
57074;BME280;69035;54.392;18.574;2023-04-06T03:15:20;102196.72;;;-1.02;68.69
57074;BME280;69035;54.392;18.574;2023-04-06T03:18:00;102187.78;;;-1.07;69.00
57074;BME280;69035;54.392;18.574;2023-04-06T03:20:37;102195.09;;;-1.15;69.20
57074;BME280;69035;54.392;18.574;2023-04-06T03:23:06;102191.59;;;-1.15;69.10
57074;BME280;69035;54.392;18.574;2023-04-06T03:25:39;102195.09;;;-1.15;68.82
57074;BME280;69035;54.392;18.574;2023-04-06T03:28:11;102194.16;;;-1.15;67.99
57074;BME280;69035;54.392;18.574;2023-04-06T03:30:49;102189.75;;;-1.18;68.63
57074;BME280;69035;54.392;18.574;2023-04-06T03:33:27;102197.28;;;-1.21;68.69
57074;BME280;69035;54.392;18.574;2023-04-06T03:35:57;102200.59;;;-1.24;68.59
57074;BME280;69035;54.392;18.574;2023-04-06T03:38:26;102198.78;;;-1.25;68.45
57074;BME280;69035;54.392;18.574;2023-04-06T03:40:56;102205.56;;;-1.27;68.16
57074;BME280;69035;54.392;18.574;2023-04-06T03:43:27;102205.56;;;-1.27;68.23
57074;BME280;69035;54.392;18.574;2023-04-06T03:45:56;102208.13;;;-1.27;68.20
57074;BME280;69035;54.392;18.574;2023-04-06T03:48:24;102211.59;;;-1.26;68.03
57074;BME280;69035;54.392;18.574;2023-04-06T03:50:55;102215.16;;;-1.24;68.27
57074;BME280;69035;54.392;18.574;2023-04-06T03:53:25;102211.78;;;-1.23;68.09
57074;BME280;69035;54.392;18.574;2023-04-06T03:55:54;102217.91;;;-1.21;68.23
57074;BME280;69035;54.392;18.574;2023-04-06T03:58:23;102220.59;;;-1.19;67.90
57074;BME280;69035;54.392;18.574;2023-04-06T04:00:52;102218.91;;;-1.19;68.17
57074;BME280;69035;54.392;18.574;2023-04-06T04:03:21;102224.88;;;-1.20;68.22
57074;BME280;69035;54.392;18.574;2023-04-06T04:05:50;102228.97;;;-1.24;69.13
57074;BME280;69035;54.392;18.574;2023-04-06T04:08:20;102221.03;;;-1.27;68.56
57074;BME280;69035;54.392;18.574;2023-04-06T04:10:49;102231.53;;;-1.24;68.46
57074;BME280;69035;54.392;18.574;2023-04-06T04:13:19;102226.19;;;-1.27;68.68
57074;BME280;69035;54.392;18.574;2023-04-06T04:15:50;102212.81;;;-1.34;68.64
57074;BME280;69035;54.392;18.574;2023-04-06T04:18:21;102228.56;;;-1.30;69.01
57074;BME280;69035;54.392;18.574;2023-04-06T04:20:51;102234.44;;;-1.32;68.85
57074;BME280;69035;54.392;18.574;2023-04-06T04:23:23;102225.00;;;-1.32;68.73
57074;BME280;69035;54.392;18.574;2023-04-06T04:25:52;102233.63;;;-1.31;68.72
57074;BME280;69035;54.392;18.574;2023-04-06T04:28:20;102218.78;;;-1.35;68.49
57074;BME280;69035;54.392;18.574;2023-04-06T04:30:49;102213.19;;;-1.28;68.49
57074;BME280;69035;54.392;18.574;2023-04-06T04:33:18;102225.56;;;-1.23;68.33
57074;BME280;69035;54.392;18.574;2023-04-06T04:35:48;102225.88;;;-1.18;68.40
57074;BME280;69035;54.392;18.574;2023-04-06T04:38:20;102221.84;;;-1.13;68.65
57074;BME280;69035;54.392;18.574;2023-04-06T04:40:54;102229.00;;;-1.09;68.74
57074;BME280;69035;54.392;18.574;2023-04-06T04:43:22;102225.81;;;-1.04;67.79
57074;BME280;69035;54.392;18.574;2023-04-06T04:45:51;102231.31;;;-0.98;67.89
57074;BME280;69035;54.392;18.574;2023-04-06T04:48:31;102222.06;;;-0.95;68.34
57074;BME280;69035;54.392;18.574;2023-04-06T04:51:04;102224.94;;;-0.90;67.99
57074;BME280;69035;54.392;18.574;2023-04-06T04:53:53;102217.63;;;-0.82;67.83
57074;BME280;69035;54.392;18.574;2023-04-06T04:56:27;102217.28;;;-0.74;67.90
57074;BME280;69035;54.392;18.574;2023-04-06T04:59:05;102219.25;;;-0.69;67.61
57074;BME280;69035;54.392;18.574;2023-04-06T05:01:38;102199.31;;;-0.72;67.77
57074;BME280;69035;54.392;18.574;2023-04-06T05:04:22;102227.25;;;-0.50;67.82
57074;BME280;69035;54.392;18.574;2023-04-06T05:07:03;102221.56;;;-0.44;67.42
57074;BME280;69035;54.392;18.574;2023-04-06T05:09:32;102217.72;;;-0.36;67.29
57074;BME280;69035;54.392;18.574;2023-04-06T05:12:03;102223.31;;;-0.28;66.96
57074;BME280;69035;54.392;18.574;2023-04-06T05:14:37;102226.25;;;-0.22;67.11
57074;BME280;69035;54.392;18.574;2023-04-06T05:17:12;102231.13;;;-0.12;66.37
57074;BME280;69035;54.392;18.574;2023-04-06T05:19:40;102222.22;;;-0.02;66.92
57074;BME280;69035;54.392;18.574;2023-04-06T05:22:11;102235.63;;;0.07;66.82
57074;BME280;69035;54.392;18.574;2023-04-06T05:24:46;102233.41;;;0.13;66.76
57074;BME280;69035;54.392;18.574;2023-04-06T05:27:16;102240.97;;;0.25;66.54
57074;BME280;69035;54.392;18.574;2023-04-06T05:29:47;102235.47;;;0.36;66.02
57074;BME280;69035;54.392;18.574;2023-04-06T05:32:17;102234.38;;;0.47;66.48
57074;BME280;69035;54.392;18.574;2023-04-06T05:34:49;102232.34;;;0.58;65.84
57074;BME280;69035;54.392;18.574;2023-04-06T05:37:19;102238.00;;;0.67;66.43
57074;BME280;69035;54.392;18.574;2023-04-06T05:39:47;102225.50;;;0.75;66.33
57074;BME280;69035;54.392;18.574;2023-04-06T05:42:19;102226.84;;;0.84;65.77
57074;BME280;69035;54.392;18.574;2023-04-06T05:44:52;102227.44;;;0.95;65.64
57074;BME280;69035;54.392;18.574;2023-04-06T05:47:21;102229.03;;;1.10;65.40
57074;BME280;69035;54.392;18.574;2023-04-06T05:49:57;102226.09;;;1.20;65.12
57074;BME280;69035;54.392;18.574;2023-04-06T05:52:37;102231.09;;;1.33;65.39
57074;BME280;69035;54.392;18.574;2023-04-06T05:55:06;102229.22;;;1.47;65.24
57074;BME280;69035;54.392;18.574;2023-04-06T05:57:39;102232.47;;;1.61;65.03
57074;BME280;69035;54.392;18.574;2023-04-06T06:00:09;102229.72;;;1.76;64.43
57074;BME280;69035;54.392;18.574;2023-04-06T06:02:50;102226.88;;;1.88;63.90
57074;BME280;69035;54.392;18.574;2023-04-06T06:05:23;102232.72;;;2.02;64.03
57074;BME280;69035;54.392;18.574;2023-04-06T06:07:53;102224.47;;;2.11;64.41
57074;BME280;69035;54.392;18.574;2023-04-06T06:10:22;102229.56;;;2.27;64.12
57074;BME280;69035;54.392;18.574;2023-04-06T06:12:53;102234.59;;;2.42;63.66
57074;BME280;69035;54.392;18.574;2023-04-06T06:15:22;102231.75;;;2.55;63.49
57074;BME280;69035;54.392;18.574;2023-04-06T06:17:53;102235.91;;;2.71;62.73
57074;BME280;69035;54.392;18.574;2023-04-06T06:20:21;102215.53;;;2.81;61.74
57074;BME280;69035;54.392;18.574;2023-04-06T06:22:50;102225.09;;;3.01;60.57
57074;BME280;69035;54.392;18.574;2023-04-06T06:25:21;102223.06;;;3.13;60.80
57074;BME280;69035;54.392;18.574;2023-04-06T06:27:51;102228.88;;;3.29;60.59
57074;BME280;69035;54.392;18.574;2023-04-06T06:30:21;102223.25;;;3.39;59.25
57074;BME280;69035;54.392;18.574;2023-04-06T06:32:51;102218.66;;;3.53;58.33
57074;BME280;69035;54.392;18.574;2023-04-06T06:35:20;102224.50;;;3.69;57.66
57074;BME280;69035;54.392;18.574;2023-04-06T06:37:49;102226.75;;;3.82;57.87
57074;BME280;69035;54.392;18.574;2023-04-06T06:40:20;102219.44;;;3.94;56.70
57074;BME280;69035;54.392;18.574;2023-04-06T06:42:52;102223.88;;;3.97;57.79
57074;BME280;69035;54.392;18.574;2023-04-06T06:45:34;102221.69;;;4.08;56.20
57074;BME280;69035;54.392;18.574;2023-04-06T06:48:03;102223.59;;;4.12;58.17
57074;BME280;69035;54.392;18.574;2023-04-06T06:50:31;102231.50;;;4.15;58.25
57074;BME280;69035;54.392;18.574;2023-04-06T06:53:01;102224.78;;;4.20;58.02
57074;BME280;69035;54.392;18.574;2023-04-06T06:55:29;102230.03;;;4.22;57.04
57074;BME280;69035;54.392;18.574;2023-04-06T06:57:58;102205.53;;;4.16;57.50
57074;BME280;69035;54.392;18.574;2023-04-06T07:00:26;102236.78;;;4.39;57.00
57074;BME280;69035;54.392;18.574;2023-04-06T07:02:57;102225.25;;;4.55;56.74
57074;BME280;69035;54.392;18.574;2023-04-06T07:05:27;102223.97;;;4.68;56.72
57074;BME280;69035;54.392;18.574;2023-04-06T07:07:58;102223.50;;;4.78;56.54
57074;BME280;69035;54.392;18.574;2023-04-06T07:10:27;102223.41;;;5.01;56.65
57074;BME280;69035;54.392;18.574;2023-04-06T07:12:56;102224.28;;;5.26;56.26
57074;BME280;69035;54.392;18.574;2023-04-06T07:15:25;102223.84;;;5.37;55.98
57074;BME280;69035;54.392;18.574;2023-04-06T07:17:54;102227.13;;;5.59;57.14
57074;BME280;69035;54.392;18.574;2023-04-06T07:20:24;102227.66;;;5.74;55.76
57074;BME280;69035;54.392;18.574;2023-04-06T07:22:55;102232.81;;;5.73;56.52
57074;BME280;69035;54.392;18.574;2023-04-06T07:25:23;102223.13;;;5.69;55.67
57074;BME280;69035;54.392;18.574;2023-04-06T07:27:52;102222.56;;;5.79;56.70
57074;BME280;69035;54.392;18.574;2023-04-06T07:30:22;102228.44;;;5.98;56.23
57074;BME280;69035;54.392;18.574;2023-04-06T07:32:53;102225.53;;;6.17;55.85
57074;BME280;69035;54.392;18.574;2023-04-06T07:35:25;102223.63;;;6.40;54.78
57074;BME280;69035;54.392;18.574;2023-04-06T07:37:54;102235.28;;;6.52;55.13
57074;BME280;69035;54.392;18.574;2023-04-06T07:40:23;102225.06;;;6.59;55.54
57074;BME280;69035;54.392;18.574;2023-04-06T07:42:55;102231.56;;;6.74;55.84
57074;BME280;69035;54.392;18.574;2023-04-06T07:45:24;102226.22;;;6.69;54.91
57074;BME280;69035;54.392;18.574;2023-04-06T07:47:54;102231.66;;;6.77;55.67
57074;BME280;69035;54.392;18.574;2023-04-06T07:50:26;102229.19;;;6.82;54.78
57074;BME280;69035;54.392;18.574;2023-04-06T07:52:56;102229.66;;;6.68;54.26
57074;BME280;69035;54.392;18.574;2023-04-06T07:55:25;102229.44;;;6.60;55.08
57074;BME280;69035;54.392;18.574;2023-04-06T07:57:54;102233.47;;;6.79;55.23
57074;BME280;69035;54.392;18.574;2023-04-06T08:00:22;102235.84;;;6.70;54.55
57074;BME280;69035;54.392;18.574;2023-04-06T08:02:51;102226.88;;;6.92;54.58
57074;BME280;69035;54.392;18.574;2023-04-06T08:05:20;102225.19;;;6.96;53.95
57074;BME280;69035;54.392;18.574;2023-04-06T08:07:51;102227.03;;;6.68;54.06
57074;BME280;69035;54.392;18.574;2023-04-06T08:10:19;102222.34;;;6.56;55.32
57074;BME280;69035;54.392;18.574;2023-04-06T08:12:48;102228.16;;;6.46;55.21
57074;BME280;69035;54.392;18.574;2023-04-06T08:15:17;102222.94;;;6.46;54.56
57074;BME280;69035;54.392;18.574;2023-04-06T08:17:46;102224.75;;;6.49;54.92
57074;BME280;69035;54.392;18.574;2023-04-06T08:20:15;102217.16;;;6.58;54.09
57074;BME280;69035;54.392;18.574;2023-04-06T08:22:44;102221.16;;;6.75;54.40
57074;BME280;69035;54.392;18.574;2023-04-06T08:25:14;102230.81;;;6.78;53.00
57074;BME280;69035;54.392;18.574;2023-04-06T08:27:43;102221.97;;;6.73;52.81
57074;BME280;69035;54.392;18.574;2023-04-06T08:30:12;102221.44;;;6.85;53.16
57074;BME280;69035;54.392;18.574;2023-04-06T08:32:42;102225.03;;;6.90;51.86
57074;BME280;69035;54.392;18.574;2023-04-06T08:35:11;102225.91;;;6.89;52.81
57074;BME280;69035;54.392;18.574;2023-04-06T08:37:40;102230.00;;;7.11;53.01
57074;BME280;69035;54.392;18.574;2023-04-06T08:40:09;102231.28;;;7.27;52.21
57074;BME280;69035;54.392;18.574;2023-04-06T08:42:41;102231.56;;;7.38;52.20
57074;BME280;69035;54.392;18.574;2023-04-06T08:45:13;102236.56;;;7.28;51.25
57074;BME280;69035;54.392;18.574;2023-04-06T08:47:43;102224.13;;;7.20;51.20
57074;BME280;69035;54.392;18.574;2023-04-06T08:50:12;102235.41;;;6.87;51.63
57074;BME280;69035;54.392;18.574;2023-04-06T08:52:42;102232.81;;;6.87;51.93
57074;BME280;69035;54.392;18.574;2023-04-06T08:55:12;102225.34;;;7.01;52.03
57074;BME280;69035;54.392;18.574;2023-04-06T08:57:45;102230.22;;;7.20;51.38
57074;BME280;69035;54.392;18.574;2023-04-06T09:00:14;102227.84;;;7.29;50.78
57074;BME280;69035;54.392;18.574;2023-04-06T09:02:45;102227.56;;;7.19;48.50
57074;BME280;69035;54.392;18.574;2023-04-06T09:05:15;102229.94;;;7.09;49.90
57074;BME280;69035;54.392;18.574;2023-04-06T09:07:44;102226.34;;;7.06;49.55
57074;BME280;69035;54.392;18.574;2023-04-06T09:10:13;102225.34;;;7.32;50.73
57074;BME280;69035;54.392;18.574;2023-04-06T09:12:44;102224.47;;;7.33;50.04
57074;BME280;69035;54.392;18.574;2023-04-06T09:15:18;102221.38;;;7.48;49.68
57074;BME280;69035;54.392;18.574;2023-04-06T09:17:50;102225.44;;;7.72;50.36
57074;BME280;69035;54.392;18.574;2023-04-06T09:20:23;102219.16;;;7.65;48.78
57074;BME280;69035;54.392;18.574;2023-04-06T09:22:54;102214.88;;;7.67;48.38
57074;BME280;69035;54.392;18.574;2023-04-06T09:25:24;102218.44;;;7.36;48.57
57074;BME280;69035;54.392;18.574;2023-04-06T09:28:03;102219.47;;;7.41;48.42
57074;BME280;69035;54.392;18.574;2023-04-06T09:30:33;102221.16;;;7.41;48.93
57074;BME280;69035;54.392;18.574;2023-04-06T09:33:03;102219.50;;;7.43;49.04
57074;BME280;69035;54.392;18.574;2023-04-06T09:35:32;102213.53;;;7.48;49.65
57074;BME280;69035;54.392;18.574;2023-04-06T09:38:10;102221.69;;;7.61;49.20
57074;BME280;69035;54.392;18.574;2023-04-06T09:40:48;102227.31;;;7.76;48.86
57074;BME280;69035;54.392;18.574;2023-04-06T09:43:29;102228.91;;;7.71;49.13
57074;BME280;69035;54.392;18.574;2023-04-06T09:46:00;102225.00;;;7.90;48.44
57074;BME280;69035;54.392;18.574;2023-04-06T09:48:32;102220.31;;;7.77;48.29
57074;BME280;69035;54.392;18.574;2023-04-06T09:51:03;102213.09;;;7.66;48.93
57074;BME280;69035;54.392;18.574;2023-04-06T09:53:36;102221.91;;;7.70;49.27
57074;BME280;69035;54.392;18.574;2023-04-06T09:56:10;102224.31;;;7.62;49.49
57074;BME280;69035;54.392;18.574;2023-04-06T09:58:43;102224.28;;;7.26;49.79
57074;BME280;69035;54.392;18.574;2023-04-06T10:01:15;102215.06;;;7.07;50.51
57074;BME280;69035;54.392;18.574;2023-04-06T10:03:54;102236.16;;;6.83;49.90
57074;BME280;69035;54.392;18.574;2023-04-06T10:06:27;102223.88;;;6.80;50.84
57074;BME280;69035;54.392;18.574;2023-04-06T10:08:57;102220.28;;;6.75;51.21
57074;BME280;69035;54.392;18.574;2023-04-06T10:11:26;102219.63;;;6.82;50.97
57074;BME280;69035;54.392;18.574;2023-04-06T10:13:57;102220.69;;;6.89;50.87
57074;BME280;69035;54.392;18.574;2023-04-06T10:16:26;102219.28;;;6.71;50.88
57074;BME280;69035;54.392;18.574;2023-04-06T10:19:00;102220.41;;;6.49;51.59
57074;BME280;69035;54.392;18.574;2023-04-06T10:21:32;102231.19;;;6.60;50.91
57074;BME280;69035;54.392;18.574;2023-04-06T10:24:07;102235.34;;;6.84;50.66
57074;BME280;69035;54.392;18.574;2023-04-06T10:26:37;102225.63;;;7.11;50.75
57074;BME280;69035;54.392;18.574;2023-04-06T10:29:08;102215.81;;;7.03;49.99
57074;BME280;69035;54.392;18.574;2023-04-06T10:31:39;102231.03;;;7.18;50.54
57074;BME280;69035;54.392;18.574;2023-04-06T10:34:08;102225.13;;;7.25;49.65
57074;BME280;69035;54.392;18.574;2023-04-06T10:36:37;102224.09;;;7.53;49.36
57074;BME280;69035;54.392;18.574;2023-04-06T10:39:06;102225.03;;;7.55;50.07
57074;BME280;69035;54.392;18.574;2023-04-06T10:41:40;102210.91;;;7.83;49.57
57074;BME280;69035;54.392;18.574;2023-04-06T10:44:20;102226.81;;;7.93;48.83
57074;BME280;69035;54.392;18.574;2023-04-06T10:46:57;102207.41;;;7.84;48.29
57074;BME280;69035;54.392;18.574;2023-04-06T10:49:27;102216.69;;;7.72;49.17
57074;BME280;69035;54.392;18.574;2023-04-06T10:51:56;102215.97;;;7.77;49.30
57074;BME280;69035;54.392;18.574;2023-04-06T10:54:26;102219.34;;;7.73;48.57
57074;BME280;69035;54.392;18.574;2023-04-06T10:56:56;102219.16;;;7.65;48.63
57074;BME280;69035;54.392;18.574;2023-04-06T10:59:28;102208.84;;;7.37;48.34
57074;BME280;69035;54.392;18.574;2023-04-06T11:01:57;102210.66;;;7.39;48.66
57074;BME280;69035;54.392;18.574;2023-04-06T11:04:26;102211.59;;;7.41;48.22
57074;BME280;69035;54.392;18.574;2023-04-06T11:06:55;102203.84;;;7.44;48.18
57074;BME280;69035;54.392;18.574;2023-04-06T11:09:25;102205.88;;;7.56;47.43
57074;BME280;69035;54.392;18.574;2023-04-06T11:11:54;102204.16;;;7.58;48.40
57074;BME280;69035;54.392;18.574;2023-04-06T11:14:23;102205.06;;;7.59;48.06
57074;BME280;69035;54.392;18.574;2023-04-06T11:16:55;102197.00;;;7.51;48.46
57074;BME280;69035;54.392;18.574;2023-04-06T11:19:24;102196.59;;;7.34;47.91
57074;BME280;69035;54.392;18.574;2023-04-06T11:21:53;102194.81;;;7.33;48.78
57074;BME280;69035;54.392;18.574;2023-04-06T11:24:25;102198.09;;;7.24;49.33
57074;BME280;69035;54.392;18.574;2023-04-06T11:26:56;102177.88;;;7.19;48.57
57074;BME280;69035;54.392;18.574;2023-04-06T11:29:26;102194.97;;;7.39;48.08
57074;BME280;69035;54.392;18.574;2023-04-06T11:32:00;102180.00;;;7.33;48.54
57074;BME280;69035;54.392;18.574;2023-04-06T11:34:32;102190.97;;;7.54;48.42
57074;BME280;69035;54.392;18.574;2023-04-06T11:37:03;102184.59;;;7.42;48.66
57074;BME280;69035;54.392;18.574;2023-04-06T11:39:38;102180.75;;;7.64;48.54
57074;BME280;69035;54.392;18.574;2023-04-06T11:42:07;102183.88;;;7.86;48.27
57074;BME280;69035;54.392;18.574;2023-04-06T11:44:38;102184.78;;;7.87;47.53
57074;BME280;69035;54.392;18.574;2023-04-06T11:47:09;102175.81;;;7.77;47.05
57074;BME280;69035;54.392;18.574;2023-04-06T11:49:40;102185.84;;;7.58;47.42
57074;BME280;69035;54.392;18.574;2023-04-06T11:52:14;102171.84;;;7.56;47.23
57074;BME280;69035;54.392;18.574;2023-04-06T11:54:46;102163.28;;;7.62;46.67
57074;BME280;69035;54.392;18.574;2023-04-06T11:57:16;102175.38;;;7.58;47.86
57074;BME280;69035;54.392;18.574;2023-04-06T11:59:45;102175.44;;;7.61;47.32
57074;BME280;69035;54.392;18.574;2023-04-06T12:02:15;102171.97;;;7.61;48.31
57074;BME280;69035;54.392;18.574;2023-04-06T12:04:45;102171.75;;;7.52;48.20
57074;BME280;69035;54.392;18.574;2023-04-06T12:07:14;102171.47;;;7.77;47.95
57074;BME280;69035;54.392;18.574;2023-04-06T12:09:43;102166.31;;;7.80;47.74
57074;BME280;69035;54.392;18.574;2023-04-06T12:12:11;102166.44;;;7.85;47.69
57074;BME280;69035;54.392;18.574;2023-04-06T12:14:40;102159.38;;;7.82;46.45
57074;BME280;69035;54.392;18.574;2023-04-06T12:17:09;102154.69;;;7.67;46.71
57074;BME280;69035;54.392;18.574;2023-04-06T12:19:40;102159.13;;;7.72;47.48
57074;BME280;69035;54.392;18.574;2023-04-06T12:22:09;102160.03;;;7.72;47.45
57074;BME280;69035;54.392;18.574;2023-04-06T12:24:38;102160.97;;;7.39;47.23
57074;BME280;69035;54.392;18.574;2023-04-06T12:27:07;102152.25;;;7.39;47.95
57074;BME280;69035;54.392;18.574;2023-04-06T12:29:38;102158.81;;;7.23;47.27
57074;BME280;69035;54.392;18.574;2023-04-06T12:32:07;102158.72;;;7.18;48.29
57074;BME280;69035;54.392;18.574;2023-04-06T12:34:37;102150.97;;;7.23;47.69
57074;BME280;69035;54.392;18.574;2023-04-06T12:37:07;102147.47;;;7.22;47.77
57074;BME280;69035;54.392;18.574;2023-04-06T12:39:37;102145.81;;;7.26;47.67
57074;BME280;69035;54.392;18.574;2023-04-06T12:42:05;102139.31;;;7.45;48.13
57074;BME280;69035;54.392;18.574;2023-04-06T12:44:35;102134.50;;;7.62;48.72
57074;BME280;69035;54.392;18.574;2023-04-06T12:47:04;102141.03;;;7.81;47.50
57074;BME280;69035;54.392;18.574;2023-04-06T12:49:35;102136.81;;;7.89;47.17
57074;BME280;69035;54.392;18.574;2023-04-06T12:52:03;102133.59;;;7.61;47.49
57074;BME280;69035;54.392;18.574;2023-04-06T12:54:34;102132.88;;;7.68;47.13
57074;BME280;69035;54.392;18.574;2023-04-06T12:57:03;102130.00;;;7.56;47.26
57074;BME280;69035;54.392;18.574;2023-04-06T12:59:32;102124.25;;;7.73;47.29
57074;BME280;69035;54.392;18.574;2023-04-06T13:02:03;102127.16;;;7.85;47.31
57074;BME280;69035;54.392;18.574;2023-04-06T13:04:32;102126.09;;;7.77;46.58
57074;BME280;69035;54.392;18.574;2023-04-06T13:07:00;102118.50;;;7.89;46.40